Round Rock, TX (78665)

12:48 PM CDT on September 04, 2015 (GMT -0500)
Voigt Elementary School | | Change Station
CLOSE
Current Station
Personal Weather Station
Location: Round Rock, TX
Elevation: 768 ft
Nearby Weather Stations

Elev 768 ft 30.50 °N, 97.68 °W | Updated 6 minutes ago

Partly Cloudy
Partly Cloudy
91.0 °F
Feels Like 99 °F
N
0.0
Wind Variable Wind from NE

Today
High -- | Low -- °F
--% Chance of Precip.
Yesterday
High -- | Low -- °F
Precip. -- in
7:08 AM 7:50 PM
Waning Gibbous, 57% visible
Pressure 29.96 in
Visibility 10.0 miles
Clouds Scattered Clouds 4100 ft
Mostly Cloudy 5000 ft
Overcast 6500 ft
Heat Index 99 °F
Dew Point 73 °F
Humidity 55%
Rainfall 0.00 in
Snow Depth Not available.
UV 3 out of 12
Pollen 7.50 out of 12
Air Quality Not available.
Flu Activity Not available.
METAR KEDC 041735Z AUTO 00000KT 10SM SCT041 BKN050 OVC065 31/22 A2996 RMK AO2
Pressure 29.96 in
Visibility 10.0 miles
Clouds Scattered Clouds 4100 ft
Mostly Cloudy 5000 ft
Overcast 6500 ft
Heat Index 99 °F
Dew Point 73 °F
Humidity 55%
Rainfall 0.00 in
Snow Depth Not available.
UV 3 out of 12
Pollen 7.50 out of 12
Air Quality Not available.
Flu Activity Not available.
METAR KEDC 041735Z AUTO 00000KT 10SM SCT041 BKN050 OVC065 31/22 A2996 RMK AO2

10-Day Weather Forecast

×

Almanac

Astronomy

Sep. 04, 2015 Rise Set
Actual Time
Civil Twilight
Nautical Twilight
Astronomical Twilight
Moon
Length of Visible Light
Length of Day
Tomorrow will be .
, % of the Moon is Illuminated

Today's Extremes

State Highs State Lows

Community

WunderPhotos

Upload Photos

1,852,250 photos uploaded!

WunderBlogs® & News

Nearby

Air Quality

  Air Quality AQ Index Pollutant
Not available.

Snow Depth

Station Depth Elevation

Earthquake Activity

City Distance Mag. Time & Date
Minimum magnitude displayed is 2.5.

Coastal Water Temperatures

Place Temperature

Stations

Nearby Weather Stations

Station Location Temp. Windchill Dew Point Humidity Wind Precip. Elev Updated Type